createdAt,value
2018-12-14T00:01:35.903Z,1.00
2018-12-14T00:04:04.363Z,0.90
2018-12-14T00:06:32.759Z,0.90
2018-12-14T00:09:01.239Z,1.00
2018-12-14T00:11:29.598Z,0.90
2018-12-14T00:13:58.031Z,0.90
2018-12-14T00:16:26.490Z,1.00
2018-12-14T00:18:54.922Z,1.00
2018-12-14T00:21:24.018Z,1.00
2018-12-14T00:23:52.391Z,1.10
2018-12-14T00:26:20.746Z,1.00
2018-12-14T00:28:49.498Z,1.00
2018-12-14T00:31:17.967Z,1.00
2018-12-14T00:33:46.323Z,1.00
2018-12-14T00:36:15.215Z,1.00
2018-12-14T00:38:43.682Z,1.00
2018-12-14T00:41:12.028Z,1.00
2018-12-14T00:43:40.654Z,0.90
2018-12-14T00:46:09.015Z,1.00
2018-12-14T00:48:37.463Z,0.90
2018-12-14T00:51:06.724Z,0.90
2018-12-14T00:53:35.078Z,0.90
2018-12-14T00:56:03.428Z,0.90
2018-12-14T00:58:32.471Z,1.00
2018-12-14T01:01:00.826Z,0.90
2018-12-14T01:03:29.188Z,0.90
2018-12-14T01:05:57.931Z,0.90
2018-12-14T01:08:26.275Z,1.00
2018-12-14T01:10:54.622Z,0.90
2018-12-14T01:13:23.146Z,0.90
2018-12-14T01:15:51.511Z,0.90
2018-12-14T01:18:20.026Z,0.90
2018-12-14T01:20:48.654Z,0.90
2018-12-14T01:23:17.107Z,0.90
2018-12-14T01:25:45.464Z,0.90
2018-12-14T01:28:14.258Z,0.80
2018-12-14T01:30:42.618Z,0.90
2018-12-14T01:33:10.963Z,0.80
2018-12-14T01:35:39.351Z,0.80
2018-12-14T01:38:07.717Z,0.70
2018-12-14T01:40:36.058Z,0.80
2018-12-14T01:43:04.530Z,0.70
2018-12-14T01:45:32.883Z,0.60
2018-12-14T01:48:01.295Z,0.70
2018-12-14T01:50:30.167Z,0.70
2018-12-14T01:52:58.532Z,0.60
2018-12-14T01:55:26.898Z,0.50
2018-12-14T01:57:55.293Z,0.50
2018-12-14T02:00:23.811Z,0.50
2018-12-14T02:02:52.176Z,0.50
2018-12-14T02:05:20.936Z,0.50
2018-12-14T02:07:49.299Z,0.60
2018-12-14T02:10:17.778Z,0.50
2018-12-14T02:12:46.387Z,0.50
2018-12-14T02:15:14.774Z,0.50
2018-12-14T02:17:43.136Z,0.40
2018-12-14T02:20:11.783Z,0.40
2018-12-14T02:22:40.123Z,0.40
2018-12-14T02:25:08.590Z,0.40
2018-12-14T02:27:38.377Z,0.40
2018-12-14T02:30:17.936Z,0.30
2018-12-14T02:32:46.683Z,0.30
2018-12-14T02:35:15.030Z,0.30
2018-12-14T02:37:43.912Z,0.20
2018-12-14T02:40:12.384Z,0.20
2018-12-14T02:42:40.734Z,0.20
2018-12-14T02:45:09.094Z,0.10
2018-12-14T02:47:38.203Z,0.10
2018-12-14T02:50:06.940Z,0.00
2018-12-14T02:52:35.614Z,0.00
2018-12-14T02:55:04.753Z,0.00
2018-12-14T02:57:33.111Z,0.00
2018-12-14T03:00:01.485Z,0.00
2018-12-14T03:02:30.541Z,0.00
2018-12-14T03:04:58.887Z,0.00
2018-12-14T03:07:27.243Z,0.00
2018-12-14T03:09:55.927Z,-0.10
2018-12-14T03:12:26.894Z,-0.10
2018-12-14T03:14:54.779Z,-0.10
2018-12-14T03:17:23.607Z,-0.20
2018-12-14T03:19:52.263Z,-0.20
2018-12-14T03:22:20.932Z,-0.20
2018-12-14T03:24:50.156Z,-0.20
2018-12-14T03:27:18.517Z,-0.20
2018-12-14T03:29:46.890Z,-0.30
2018-12-14T03:32:15.430Z,-0.30
2018-12-14T03:34:43.954Z,-0.30
2018-12-14T03:37:12.472Z,-0.20
2018-12-14T03:39:41.372Z,-0.20
2018-12-14T03:42:09.760Z,-0.20
2018-12-14T03:44:38.151Z,-0.30
2018-12-14T03:47:07.174Z,-0.30
2018-12-14T03:49:35.647Z,-0.30
2018-12-14T03:52:04.100Z,-0.40
2018-12-14T03:54:33.124Z,-0.30
2018-12-14T03:57:01.539Z,-0.30
2018-12-14T03:59:29.911Z,-0.30
2018-12-14T04:01:58.620Z,-0.30
2018-12-14T04:04:26.971Z,-0.40
2018-12-14T04:06:55.325Z,-0.40
2018-12-14T04:09:23.779Z,-0.30
2018-12-14T04:11:52.164Z,-0.40
2018-12-14T04:14:20.542Z,-0.20
2018-12-14T04:16:48.935Z,-0.30
2018-12-14T04:19:17.302Z,-0.40
2018-12-14T04:21:45.682Z,-0.20
2018-12-14T04:24:14.587Z,-0.30
2018-12-14T04:26:42.955Z,-0.20
2018-12-14T04:29:11.335Z,-0.10
2018-12-14T04:31:39.728Z,-0.20
2018-12-14T04:34:08.228Z,-0.30
2018-12-14T04:36:36.604Z,-0.20
2018-12-14T04:39:07.080Z,-0.20
2018-12-14T04:41:35.418Z,-0.20
2018-12-14T04:44:04.000Z,-0.20
2018-12-14T04:46:32.395Z,-0.40
2018-12-14T04:49:00.762Z,-0.30
2018-12-14T04:51:29.124Z,-0.30
2018-12-14T04:53:57.494Z,-0.30
2018-12-14T04:56:25.919Z,-0.40
2018-12-14T04:58:54.374Z,-0.30
2018-12-14T05:01:23.001Z,-0.30
2018-12-14T05:03:51.380Z,-0.30
2018-12-14T05:06:19.872Z,-0.20
2018-12-14T05:08:48.242Z,-0.30
2018-12-14T05:11:16.591Z,-0.40
2018-12-14T05:13:44.943Z,-0.20
2018-12-14T05:16:13.860Z,-0.20
2018-12-14T05:18:42.222Z,-0.30
2018-12-14T05:21:10.602Z,-0.20
2018-12-14T05:23:39.427Z,-0.30
2018-12-14T05:26:07.790Z,-0.30
2018-12-14T05:28:36.171Z,-0.30
2018-12-14T05:31:05.218Z,-0.40
2018-12-14T05:33:33.596Z,-0.40
2018-12-14T05:36:01.974Z,-0.40
2018-12-14T05:38:30.458Z,-0.20
2018-12-14T05:40:58.855Z,-0.10
2018-12-14T05:43:27.211Z,-0.10
2018-12-14T05:45:55.610Z,-0.10
2018-12-14T05:48:23.978Z,-0.20
2018-12-14T05:50:52.359Z,-0.10
2018-12-14T05:53:20.762Z,-0.10
2018-12-14T05:55:49.123Z,0.00
2018-12-14T05:58:17.551Z,0.00
2018-12-14T06:00:46.357Z,0.10
2018-12-14T06:03:14.807Z,0.10
2018-12-14T06:05:43.177Z,-0.10
2018-12-14T06:08:12.198Z,0.00
2018-12-14T06:10:40.567Z,0.00
2018-12-14T06:13:09.346Z,0.00
2018-12-14T06:15:38.455Z,-0.10
2018-12-14T06:18:06.915Z,-0.20
2018-12-14T06:20:35.327Z,-0.10
2018-12-14T06:23:03.966Z,0.00
2018-12-14T06:25:32.347Z,-0.10
2018-12-14T06:28:00.711Z,0.00
2018-12-14T06:30:29.120Z,-0.10
2018-12-14T06:32:57.486Z,-0.10
2018-12-14T06:35:25.850Z,-0.10
2018-12-14T06:37:54.582Z,-0.10
2018-12-14T06:40:22.942Z,-0.20
2018-12-14T06:42:51.294Z,-0.20
2018-12-14T06:45:19.963Z,-0.20
2018-12-14T06:47:48.378Z,-0.20
2018-12-14T06:50:16.807Z,-0.10
2018-12-14T06:52:45.198Z,-0.20
2018-12-14T06:55:14.351Z,-0.20
2018-12-14T06:57:45.666Z,-0.30
2018-12-14T07:00:17.839Z,-0.40
2018-12-14T07:02:46.918Z,-0.50
2018-12-14T07:05:17.884Z,-0.40
2018-12-14T07:07:46.254Z,-0.40
2018-12-14T07:10:15.853Z,-0.50
2018-12-14T07:12:46.050Z,-0.60
2018-12-14T07:15:14.525Z,-0.60
2018-12-14T07:17:43.216Z,-0.70
2018-12-14T07:20:11.564Z,-0.70
2018-12-14T07:22:39.923Z,-0.70
2018-12-14T07:25:08.748Z,-0.70
2018-12-14T07:27:37.089Z,-0.80
2018-12-14T07:30:05.778Z,-0.80
2018-12-14T07:32:38.059Z,-0.80
2018-12-14T07:35:06.250Z,-0.80
2018-12-14T07:37:35.299Z,-0.90
2018-12-14T07:40:04.364Z,-0.90
2018-12-14T07:42:32.739Z,-0.90
2018-12-14T07:45:01.844Z,-0.90
2018-12-14T07:47:30.187Z,-0.90
2018-12-14T07:49:58.548Z,-0.90
2018-12-14T07:52:27.418Z,-0.90
2018-12-14T07:54:55.790Z,-0.90
2018-12-14T07:57:24.276Z,-0.90
2018-12-14T07:59:53.382Z,-0.90
2018-12-14T08:02:22.343Z,-0.90
2018-12-14T08:04:50.918Z,-0.90
2018-12-14T08:07:20.862Z,-0.90
2018-12-14T08:09:51.285Z,-0.90
2018-12-14T08:12:27.409Z,-0.80
2018-12-14T08:14:58.130Z,-0.80
2018-12-14T08:17:27.312Z,-0.80
2018-12-14T08:19:55.832Z,-0.70
2018-12-14T08:22:24.199Z,-0.70
2018-12-14T08:24:52.606Z,-0.50
2018-12-14T08:27:21.119Z,-0.40
2018-12-14T08:29:51.835Z,-0.40
2018-12-14T08:32:21.399Z,-0.20
2018-12-14T08:34:51.224Z,-0.20
2018-12-14T08:37:19.882Z,-0.20
2018-12-14T08:39:48.408Z,-0.10
2018-12-14T08:42:17.095Z,-0.10
2018-12-14T08:44:45.451Z,0.10
2018-12-14T08:47:16.327Z,0.20
2018-12-14T08:49:45.058Z,0.30
2018-12-14T08:52:13.920Z,0.30
2018-12-14T08:54:42.847Z,0.40
2018-12-14T08:57:11.987Z,0.50
2018-12-14T08:59:40.823Z,0.70
2018-12-14T09:02:10.015Z,0.80
2018-12-14T09:04:39.093Z,0.80
2018-12-14T09:07:07.468Z,0.90
2018-12-14T09:09:35.930Z,1.10
2018-12-14T09:12:04.306Z,1.20
2018-12-14T09:14:32.664Z,1.20
2018-12-14T09:17:01.620Z,1.30
2018-12-14T09:19:29.979Z,1.40
2018-12-14T09:21:58.358Z,1.60
2018-12-14T09:24:26.895Z,1.60
2018-12-14T09:26:55.681Z,1.50
2018-12-14T09:29:24.039Z,1.60
2018-12-14T09:31:58.339Z,1.60
2018-12-14T09:34:26.918Z,1.60
2018-12-14T09:36:55.333Z,1.60
2018-12-14T09:39:24.414Z,1.60
2018-12-14T09:41:52.770Z,1.60
2018-12-14T09:44:21.254Z,1.60
2018-12-14T09:46:55.927Z,1.70
2018-12-14T09:49:24.415Z,1.80
2018-12-14T09:51:52.894Z,1.80
2018-12-14T09:54:21.808Z,1.80
2018-12-14T09:56:50.147Z,1.90
2018-12-14T09:59:18.498Z,2.00
2018-12-14T10:01:47.533Z,2.00
2018-12-14T10:04:15.997Z,2.00
2018-12-14T10:06:44.419Z,2.00
2018-12-14T10:09:12.779Z,2.10
2018-12-14T10:11:41.172Z,2.10
2018-12-14T10:14:09.539Z,2.10
2018-12-14T10:16:39.015Z,2.10
2018-12-14T10:19:07.885Z,2.20
2018-12-14T10:21:36.408Z,2.30
2018-12-14T10:24:06.165Z,2.30
2018-12-14T10:26:35.123Z,2.40
2018-12-14T10:29:03.704Z,2.40
2018-12-14T10:31:32.260Z,2.40
2018-12-14T10:34:00.927Z,2.50
2018-12-14T10:36:29.678Z,2.50
2018-12-14T10:38:58.726Z,2.60
2018-12-14T10:41:27.055Z,2.60
2018-12-14T10:43:55.386Z,2.70
2018-12-14T10:46:24.510Z,2.80
2018-12-14T10:48:55.047Z,2.80
2018-12-14T10:51:24.420Z,2.80
2018-12-14T10:53:52.871Z,2.80
2018-12-14T10:56:21.249Z,2.90
2018-12-14T10:58:50.185Z,3.00
2018-12-14T11:01:24.376Z,2.80
2018-12-14T11:03:53.094Z,2.90
2018-12-14T11:06:21.923Z,3.10
2018-12-14T11:08:51.161Z,3.00
2018-12-14T11:11:20.480Z,3.00
2018-12-14T11:13:48.859Z,3.10
2018-12-14T11:16:17.278Z,3.00
2018-12-14T11:18:46.014Z,3.10
2018-12-14T11:21:14.384Z,3.10
2018-12-14T11:23:42.767Z,3.10
2018-12-14T11:26:11.574Z,3.20
2018-12-14T11:28:40.035Z,3.30
2018-12-14T11:31:08.387Z,3.40
2018-12-14T11:33:38.105Z,3.50
2018-12-14T11:36:06.450Z,3.30
2018-12-14T11:38:34.817Z,3.40
2018-12-14T11:41:03.362Z,3.40
2018-12-14T11:43:31.703Z,3.40
2018-12-14T11:46:00.076Z,3.50
2018-12-14T11:48:28.452Z,3.50
2018-12-14T11:50:56.810Z,3.60
2018-12-14T11:53:25.243Z,3.60
2018-12-14T11:55:53.641Z,3.50
2018-12-14T11:58:22.107Z,3.50
2018-12-14T12:00:51.051Z,3.50
2018-12-14T12:03:19.628Z,3.50
2018-12-14T12:05:48.570Z,3.50
2018-12-14T12:08:17.833Z,3.40
2018-12-14T12:10:46.624Z,3.30
2018-12-14T12:13:15.063Z,3.20
2018-12-14T12:15:43.504Z,3.50
2018-12-14T12:18:13.307Z,3.50
2018-12-14T12:20:41.786Z,3.50
2018-12-14T12:23:10.215Z,3.40
2018-12-14T12:25:39.291Z,3.40
2018-12-14T12:28:07.643Z,3.40
2018-12-14T12:30:35.979Z,3.30
2018-12-14T12:33:05.065Z,3.20
2018-12-14T12:35:33.434Z,3.20
2018-12-14T12:38:01.890Z,3.20
2018-12-14T12:40:30.383Z,3.10
2018-12-14T12:42:58.767Z,3.10
2018-12-14T12:45:27.276Z,3.10
2018-12-14T12:47:56.066Z,3.10
2018-12-14T12:50:24.548Z,3.00
2018-12-14T12:52:52.931Z,3.00
2018-12-14T12:55:21.719Z,3.00
2018-12-14T12:57:50.088Z,3.00
2018-12-14T13:00:18.514Z,3.00
2018-12-14T13:02:47.152Z,3.10
2018-12-14T13:05:15.507Z,3.10
2018-12-14T13:07:43.843Z,3.10
2018-12-14T13:10:12.602Z,3.10
2018-12-14T13:12:41.027Z,3.10
2018-12-14T13:15:09.485Z,3.20
2018-12-14T13:17:37.950Z,3.10
2018-12-14T13:20:06.550Z,3.10
2018-12-14T13:22:34.919Z,3.10
2018-12-14T13:25:04.153Z,3.20
2018-12-14T13:27:32.517Z,3.20
2018-12-14T13:30:00.887Z,3.20
2018-12-14T13:32:29.283Z,3.20
2018-12-14T13:34:57.656Z,3.20
2018-12-14T13:37:26.031Z,3.20
2018-12-14T13:39:55.007Z,3.20
2018-12-14T13:42:23.635Z,3.20
2018-12-14T13:44:52.208Z,3.20
2018-12-14T13:47:20.883Z,3.20
2018-12-14T13:49:49.210Z,3.20
2018-12-14T13:52:17.604Z,3.20
2018-12-14T13:54:47.623Z,3.20
2018-12-14T13:57:16.102Z,3.10
2018-12-14T13:59:45.407Z,3.10
2018-12-14T14:02:14.400Z,3.10
2018-12-14T14:04:42.791Z,3.10
2018-12-14T14:07:11.180Z,3.00
2018-12-14T14:09:42.487Z,3.00
2018-12-14T14:12:11.161Z,2.90
2018-12-14T14:14:39.634Z,2.90
2018-12-14T14:17:08.472Z,2.80
2018-12-14T14:19:37.402Z,2.70
2018-12-14T14:22:06.167Z,2.70
2018-12-14T14:24:35.052Z,2.70
2018-12-14T14:27:03.429Z,2.60
2018-12-14T14:29:31.794Z,2.50
2018-12-14T14:32:00.159Z,2.40
2018-12-14T14:34:28.592Z,2.40
2018-12-14T14:36:56.950Z,2.30
2018-12-14T14:39:25.631Z,2.30
2018-12-14T14:41:54.031Z,2.30
2018-12-14T14:44:22.377Z,2.30
2018-12-14T14:46:51.083Z,2.30
2018-12-14T14:49:19.443Z,2.30
2018-12-14T14:51:48.106Z,2.20
2018-12-14T14:54:16.836Z,2.20
2018-12-14T14:56:45.259Z,2.10
2018-12-14T14:59:13.596Z,2.10
2018-12-14T15:01:42.376Z,2.00
2018-12-14T15:04:10.742Z,2.00
2018-12-14T15:06:39.110Z,2.00
2018-12-14T15:09:09.635Z,2.00
2018-12-14T15:11:38.091Z,2.00
2018-12-14T15:14:06.456Z,2.00
2018-12-14T15:16:35.454Z,2.00
2018-12-14T15:19:03.939Z,2.00
2018-12-14T15:21:32.366Z,2.00
2018-12-14T15:24:00.795Z,2.00
2018-12-14T15:26:29.160Z,2.00
2018-12-14T15:28:57.557Z,2.00
2018-12-14T15:31:26.515Z,2.00
2018-12-14T15:33:54.874Z,2.00
2018-12-14T15:36:23.234Z,1.90
2018-12-14T15:38:52.053Z,2.10
2018-12-14T15:41:20.423Z,2.10
2018-12-14T15:43:48.780Z,2.10
2018-12-14T15:46:17.596Z,2.10
2018-12-14T15:48:45.963Z,2.30
2018-12-14T15:51:14.330Z,2.40
2018-12-14T15:53:42.804Z,2.50
2018-12-14T15:56:11.158Z,2.50
2018-12-14T15:58:39.535Z,2.40
2018-12-14T16:01:08.122Z,2.40
2018-12-14T16:03:36.515Z,2.40
2018-12-14T16:06:04.968Z,2.40
2018-12-14T16:08:33.771Z,2.50
2018-12-14T16:11:02.151Z,2.50
2018-12-14T16:13:30.618Z,2.50
2018-12-14T16:15:59.421Z,2.50
2018-12-14T16:18:28.011Z,2.60
2018-12-14T16:20:56.388Z,2.50
2018-12-14T16:23:25.237Z,2.50
2018-12-14T16:25:53.603Z,2.40
2018-12-14T16:28:21.941Z,2.40
2018-12-14T16:30:50.819Z,2.50
2018-12-14T16:33:19.284Z,2.40
2018-12-14T16:35:47.645Z,2.20
2018-12-14T16:38:16.126Z,2.20
2018-12-14T16:40:44.519Z,2.30
2018-12-14T16:43:12.878Z,2.30
2018-12-14T16:45:41.843Z,2.20
2018-12-14T16:48:10.210Z,2.20
2018-12-14T16:50:38.665Z,2.20
2018-12-14T16:53:07.623Z,2.20
2018-12-14T16:55:35.987Z,2.20
2018-12-14T16:58:04.356Z,2.10
2018-12-14T17:00:32.741Z,2.10
2018-12-14T17:03:01.083Z,2.10
2018-12-14T17:05:30.090Z,2.10
2018-12-14T17:07:59.504Z,2.10
2018-12-14T17:10:28.911Z,2.00
2018-12-14T17:12:57.258Z,2.00
2018-12-14T17:15:25.615Z,2.00
2018-12-14T17:17:54.569Z,2.00
2018-12-14T17:20:26.810Z,2.00
2018-12-14T17:22:55.454Z,2.10
2018-12-14T17:25:23.831Z,2.00
2018-12-14T17:27:52.218Z,2.00
2018-12-14T17:30:20.598Z,2.00
2018-12-14T17:32:49.495Z,2.00
2018-12-14T17:35:18.591Z,2.10
2018-12-14T17:37:46.958Z,2.10
2018-12-14T17:40:15.312Z,2.00
2018-12-14T17:42:44.711Z,2.00
2018-12-14T17:45:13.646Z,2.00
2018-12-14T17:47:42.007Z,2.00
2018-12-14T17:50:10.923Z,2.00
2018-12-14T17:52:39.336Z,2.00
2018-12-14T17:55:08.863Z,2.00
2018-12-14T17:57:38.377Z,2.10
2018-12-14T18:00:07.123Z,2.10
2018-12-14T18:02:36.690Z,2.10
2018-12-14T18:05:05.366Z,2.10
2018-12-14T18:07:33.839Z,2.10
2018-12-14T18:10:02.889Z,2.10
2018-12-14T18:12:31.708Z,2.10
2018-12-14T18:15:00.058Z,2.10
2018-12-14T18:17:29.596Z,2.10
2018-12-14T18:19:57.982Z,2.10
2018-12-14T18:22:26.699Z,2.10
2018-12-14T18:24:56.359Z,2.10
2018-12-14T18:27:25.087Z,2.10
2018-12-14T18:29:53.470Z,2.10
2018-12-14T18:32:22.197Z,2.10
2018-12-14T18:34:51.234Z,2.10
2018-12-14T18:37:20.583Z,2.10
2018-12-14T18:39:49.866Z,2.10
2018-12-14T18:42:18.279Z,2.10
2018-12-14T18:44:47.078Z,2.10
2018-12-14T18:47:15.803Z,2.00
2018-12-14T18:49:45.118Z,2.10
2018-12-14T18:52:13.504Z,2.00
2018-12-14T18:54:41.994Z,2.10
2018-12-14T18:57:11.633Z,2.00
2018-12-14T18:59:39.962Z,2.10
2018-12-14T19:02:08.327Z,2.10
2018-12-14T19:04:37.235Z,2.10
2018-12-14T19:07:06.131Z,2.00
2018-12-14T19:09:36.905Z,2.00
2018-12-14T19:12:06.839Z,2.00
2018-12-14T19:14:35.679Z,2.00
2018-12-14T19:17:04.320Z,2.00
2018-12-14T19:19:35.267Z,2.00
2018-12-14T19:22:04.227Z,2.00
2018-12-14T19:24:33.226Z,2.00
2018-12-14T19:27:02.787Z,2.10
2018-12-14T19:29:32.207Z,2.00
2018-12-14T19:32:00.684Z,2.00
2018-12-14T19:34:31.504Z,2.00
2018-12-14T19:37:01.128Z,2.00
2018-12-14T19:39:30.659Z,2.00
2018-12-14T19:41:59.602Z,2.00
2018-12-14T19:44:28.824Z,2.00
2018-12-14T19:46:57.439Z,2.00
2018-12-14T19:49:25.823Z,2.00
2018-12-14T19:51:54.345Z,2.00
2018-12-14T19:54:23.262Z,2.00
2018-12-14T19:56:52.066Z,2.00
2018-12-14T19:59:20.539Z,2.00
2018-12-14T20:01:49.117Z,2.00
2018-12-14T20:04:18.098Z,2.00
2018-12-14T20:06:46.544Z,2.00
2018-12-14T20:09:15.031Z,2.00
2018-12-14T20:11:43.788Z,2.00
2018-12-14T20:14:12.181Z,2.00
2018-12-14T20:16:41.127Z,2.00
2018-12-14T20:19:09.514Z,2.00
2018-12-14T20:21:38.030Z,2.00
2018-12-14T20:24:06.850Z,1.90
2018-12-14T20:26:35.530Z,2.00
2018-12-14T20:29:03.893Z,2.00
2018-12-14T20:31:32.411Z,2.00
2018-12-14T20:34:00.755Z,2.00
2018-12-14T20:36:29.102Z,2.00
2018-12-14T20:38:57.538Z,1.90
2018-12-14T20:41:26.178Z,2.00
2018-12-14T20:43:54.562Z,2.10
2018-12-14T20:46:23.074Z,2.10
2018-12-14T20:48:51.439Z,2.10
2018-12-14T20:51:21.046Z,2.10
2018-12-14T20:53:50.894Z,2.10
2018-12-14T20:56:19.408Z,2.10
2018-12-14T20:58:48.475Z,2.10
2018-12-14T21:01:17.711Z,2.20
2018-12-14T21:03:46.182Z,2.20
2018-12-14T21:06:14.591Z,2.20
2018-12-14T21:08:43.541Z,2.20
2018-12-14T21:11:11.903Z,2.10
2018-12-14T21:13:40.449Z,2.10
2018-12-14T21:16:08.934Z,2.20
2018-12-14T21:18:37.646Z,2.20
2018-12-14T21:21:06.003Z,2.20
2018-12-14T21:23:35.354Z,2.20
2018-12-14T21:26:03.734Z,2.20
2018-12-14T21:28:32.202Z,2.10
2018-12-14T21:31:00.870Z,2.20
2018-12-14T21:33:29.249Z,2.20
2018-12-14T21:35:57.607Z,2.10
2018-12-14T21:38:26.063Z,2.10
2018-12-14T21:40:54.390Z,2.10
2018-12-14T21:43:22.761Z,2.10
2018-12-14T21:45:51.688Z,2.10
2018-12-14T21:48:20.324Z,2.10
2018-12-14T21:50:48.802Z,2.10
2018-12-14T21:53:17.746Z,2.10
2018-12-14T21:55:46.298Z,2.10
2018-12-14T21:58:18.891Z,2.10
2018-12-14T22:00:47.262Z,2.10
2018-12-14T22:03:17.305Z,2.10
2018-12-14T22:05:45.803Z,2.10
2018-12-14T22:08:14.163Z,2.10
2018-12-14T22:10:42.588Z,2.10
2018-12-14T22:13:10.996Z,2.10
2018-12-14T22:15:39.463Z,2.10
2018-12-14T22:18:07.810Z,2.00
2018-12-14T22:20:36.251Z,2.00
2018-12-14T22:23:04.599Z,2.10
2018-12-14T22:25:32.979Z,2.00
2018-12-14T22:28:01.807Z,2.00
2018-12-14T22:30:30.335Z,2.10
2018-12-14T22:32:58.687Z,2.00
2018-12-14T22:35:27.361Z,2.10
2018-12-14T22:37:55.878Z,2.00
2018-12-14T22:40:24.222Z,2.00
2018-12-14T22:42:52.691Z,2.00
2018-12-14T22:45:21.754Z,2.00
2018-12-14T22:47:50.192Z,2.00
2018-12-14T22:50:18.574Z,2.00
2018-12-14T22:52:46.935Z,2.00
2018-12-14T22:55:15.345Z,2.00
2018-12-14T22:57:44.283Z,2.00
2018-12-14T23:00:15.869Z,2.00
2018-12-14T23:02:44.263Z,2.00
2018-12-14T23:05:12.735Z,2.00
2018-12-14T23:07:41.210Z,2.00
2018-12-14T23:10:10.714Z,2.00
2018-12-14T23:12:39.140Z,2.00
2018-12-14T23:15:07.670Z,2.00
2018-12-14T23:17:36.110Z,2.00
2018-12-14T23:20:04.871Z,2.00
2018-12-14T23:22:33.242Z,2.00
2018-12-14T23:25:01.668Z,2.00
2018-12-14T23:27:30.045Z,2.00
2018-12-14T23:29:58.472Z,2.00
2018-12-14T23:32:27.147Z,2.00
2018-12-14T23:34:55.512Z,2.00
2018-12-14T23:37:24.030Z,2.00
2018-12-14T23:39:52.550Z,2.00
2018-12-14T23:42:20.931Z,2.00
2018-12-14T23:44:49.295Z,1.90
2018-12-14T23:47:17.707Z,2.00
2018-12-14T23:49:46.069Z,2.00
2018-12-14T23:52:14.416Z,2.00
2018-12-14T23:54:42.783Z,2.00
2018-12-14T23:57:12.306Z,2.00
2018-12-14T23:59:40.810Z,2.00
